Time;durP1;ratioP1;P1;durP2;ratioP2;P2;SDS_P1;SDS_P2;PMS_P1;PMS_P2;Temp;Humidity;BMP_temperature;BMP_pressure;BME280_temperature;BME280_humidity;BME280_pressure;Samples;Min_cycle;Max_cycle;Signal;HPM_P1;HPM_P2
2021/01/18 00:01:45;;;;;;;5.82;3.72;;;15.80;54.90;;;;;;6307788;22;20052;-74
2021/01/18 00:04:15;;;;;;;4.90;3.42;;;15.80;54.90;;;;;;6335950;22;20094;-75
2021/01/18 00:06:41;;;;;;;5.25;3.67;;;15.80;55.00;;;;;;6335095;22;20187;-75
2021/01/18 00:09:07;;;;;;;6.20;3.97;;;15.80;55.00;;;;;;6306519;22;19999;-75
2021/01/18 00:11:33;;;;;;;5.35;3.58;;;15.80;55.10;;;;;;6305548;22;20325;-74
2021/01/18 00:13:58;;;;;;;6.43;3.50;;;15.70;55.10;;;;;;6306554;22;20010;-74
2021/01/18 00:16:28;;;;;;;4.97;3.55;;;15.70;55.20;;;;;;6335770;22;20405;-75
2021/01/18 00:18:54;;;;;;;4.70;3.63;;;15.70;55.20;;;;;;6308339;22;20498;-74
2021/01/18 00:21:20;;;;;;;5.35;3.83;;;15.70;55.30;;;;;;6335652;22;20052;-74
2021/01/18 00:23:45;;;;;;;4.85;3.63;;;15.70;55.30;;;;;;6308238;22;20038;-74
2021/01/18 00:26:11;;;;;;;6.82;4.05;;;15.70;55.30;;;;;;6307313;22;20061;-74
2021/01/18 00:28:37;;;;;;;5.10;3.55;;;15.70;55.40;;;;;;6307311;22;20015;-74
2021/01/18 00:31:04;;;;;;;6.25;4.18;;;15.80;55.40;;;;;;6334172;22;20089;-74
2021/01/18 00:33:35;;;;;;;5.47;4.03;;;15.70;55.40;;;;;;6307671;22;20010;-75
2021/01/18 00:36:01;;;;;;;6.28;3.60;;;15.70;55.40;;;;;;6308284;22;20022;-74
2021/01/18 00:38:28;;;;;;;5.50;3.53;;;15.70;55.40;;;;;;6334570;22;20437;-74
2021/01/18 00:40:53;;;;;;;5.13;3.47;;;15.70;55.40;;;;;;6306295;22;20088;-75
2021/01/18 00:43:19;;;;;;;4.82;3.35;;;15.70;55.50;;;;;;6307370;22;20018;-74
2021/01/18 00:45:45;;;;;;;5.97;3.97;;;15.70;55.50;;;;;;6335075;22;19994;-74
2021/01/18 00:48:10;;;;;;;5.68;3.92;;;15.70;55.50;;;;;;6335345;22;20480;-74
2021/01/18 00:50:36;;;;;;;5.35;3.33;;;15.70;55.60;;;;;;6307834;22;20314;-74
2021/01/18 00:53:02;;;;;;;4.93;3.47;;;15.70;55.60;;;;;;6334782;22;20003;-75
2021/01/18 00:55:28;;;;;;;5.03;3.90;;;15.60;55.60;;;;;;6334686;22;19999;-75
2021/01/18 00:57:54;;;;;;;6.03;3.92;;;15.60;55.60;;;;;;6307012;22;20010;-74
2021/01/18 01:00:28;;;;;;;5.05;3.60;;;15.60;55.60;;;;;;6334885;22;19999;-75
2021/01/18 01:02:54;;;;;;;6.50;3.80;;;15.60;55.70;;;;;;6335409;22;20320;-74
2021/01/18 01:05:28;;;;;;;5.05;3.67;;;15.60;55.70;;;;;;6336083;22;19999;-75
2021/01/18 01:07:57;;;;;;;5.85;3.88;;;15.60;55.70;;;;;;6334248;22;20006;-74
2021/01/18 01:10:28;;;;;;;5.07;3.30;;;15.60;55.80;;;;;;6306699;22;19998;-74
2021/01/18 01:12:59;;;;;;;6.47;3.63;;;15.60;55.80;;;;;;6334584;22;20001;-74
2021/01/18 01:15:25;;;;;;;4.05;3.17;;;15.60;55.80;;;;;;6306218;22;20385;-74
2021/01/18 01:17:51;;;;;;;5.55;3.33;;;15.50;55.90;;;;;;6307917;22;20006;-74
2021/01/18 01:20:19;;;;;;;5.10;3.20;;;15.60;55.90;;;;;;6335974;22;20079;-75
2021/01/18 01:22:45;;;;;;;5.80;3.58;;;15.50;56.00;;;;;;6335066;22;20128;-74
2021/01/18 01:25:12;;;;;;;5.22;3.85;;;15.50;56.00;;;;;;6334175;22;20010;-74
2021/01/18 01:27:38;;;;;;;4.87;3.57;;;15.50;56.00;;;;;;6334685;22;20424;-74
2021/01/18 01:30:09;;;;;;;6.78;3.78;;;15.50;56.10;;;;;;6333908;22;19999;-75
2021/01/18 01:32:40;;;;;;;5.53;3.75;;;15.50;56.10;;;;;;6335617;22;20075;-75
2021/01/18 01:35:07;;;;;;;4.57;3.45;;;15.50;56.20;;;;;;6326509;22;20512;-74
2021/01/18 01:37:34;;;;;;;4.35;3.42;;;15.50;56.20;;;;;;6338555;22;19998;-75
2021/01/18 01:40:00;;;;;;;4.03;2.72;;;15.50;56.20;;;;;;6338352;22;20090;-75
2021/01/18 01:42:25;;;;;;;5.65;3.08;;;15.50;56.20;;;;;;6363879;22;20002;-75
2021/01/18 01:44:55;;;;;;;5.38;3.30;;;15.40;56.30;;;;;;6338255;22;20097;-74
2021/01/18 01:47:24;;;;;;;5.93;3.28;;;15.50;56.30;;;;;;6339010;22;20006;-74
2021/01/18 01:49:51;;;;;;;4.68;3.40;;;15.40;56.30;;;;;;6338785;22;20333;-75
2021/01/18 01:52:18;;;;;;;5.15;3.38;;;15.40;56.30;;;;;;6367496;22;20480;-74
2021/01/18 01:54:49;;;;;;;4.05;3.20;;;15.40;56.30;;;;;;6338680;22;20085;-74
2021/01/18 01:57:15;;;;;;;4.63;3.10;;;15.40;56.40;;;;;;6366323;22;19995;-75
2021/01/18 01:59:45;;;;;;;4.63;3.20;;;15.40;56.40;;;;;;6336369;22;20013;-74
2021/01/18 02:02:13;;;;;;;4.95;3.42;;;15.40;56.40;;;;;;6365989;22;19991;-75
2021/01/18 02:04:43;;;;;;;4.50;3.10;;;15.40;56.40;;;;;;6366294;22;20581;-74
2021/01/18 02:07:25;;;;;;;7.00;3.40;;;15.40;56.40;;;;;;6366591;22;19999;-74
2021/01/18 02:09:53;;;;;;;5.45;3.20;;;15.40;56.50;;;;;;6365241;22;19994;-74
2021/01/18 02:12:19;;;;;;;5.07;2.90;;;15.40;56.50;;;;;;6365215;22;20330;-74
2021/01/18 02:15:00;;;;;;;4.57;2.83;;;15.40;56.50;;;;;;6364724;22;20228;-74
2021/01/18 02:17:50;;;;;;;5.18;3.13;;;15.40;56.50;;;;;;6338442;22;20097;-74
2021/01/18 02:20:21;;;;;;;7.10;3.65;;;15.40;56.50;;;;;;6365375;22;19998;-75
2021/01/18 02:23:33;;;;;;;4.65;2.88;;;15.40;56.50;;;;;;6338040;22;19994;-74
2021/01/18 02:26:12;;;;;;;5.60;3.63;;;15.40;56.60;;;;;;6337774;22;20454;-74
2021/01/18 02:28:52;;;;;;;3.97;2.97;;;15.40;56.60;;;;;;6365114;22;20494;-74
2021/01/18 02:31:31;;;;;;;3.85;2.95;;;15.40;56.60;;;;;;6365003;22;20002;-74
2021/01/18 02:34:19;;;;;;;4.88;3.10;;;15.40;56.60;;;;;;6338604;22;20006;-74
2021/01/18 02:37:08;;;;;;;4.35;3.08;;;15.30;56.60;;;;;;6366541;22;19998;-74
2021/01/18 02:40:01;;;;;;;6.05;3.70;;;15.30;56.70;;;;;;6363298;22;19994;-75
2021/01/18 02:42:31;;;;;;;5.25;3.20;;;15.30;56.60;;;;;;6337133;22;20429;-74
2021/01/18 02:44:59;;;;;;;4.80;3.65;;;15.40;56.60;;;;;;6365011;22;20424;-74
2021/01/18 02:47:30;;;;;;;4.22;2.75;;;15.30;56.60;;;;;;6365743;22;20023;-74
2021/01/18 02:49:59;;;;;;;5.43;3.53;;;15.30;56.70;;;;;;6366855;22;19999;-74
2021/01/18 02:52:27;;;;;;;;;;;15.40;56.70;;;;;;6339054;22;20005;-74
2021/01/18 02:54:53;;;;;;;3.10;2.80;;;15.30;56.70;;;;;;6365802;22;19902;-74
2021/01/18 02:57:21;;;;;;;4.30;2.72;;;15.40;56.70;;;;;;6364845;22;20433;-74
2021/01/18 02:59:47;;;;;;;4.45;2.95;;;15.40;56.70;;;;;;6336517;22;20483;-75
2021/01/18 03:02:26;;;;;;;4.28;2.90;;;15.40;56.70;;;;;;6366030;22;19995;-74
2021/01/18 03:05:10;;;;;;;4.07;3.20;;;15.30;56.70;;;;;;6337864;22;20097;-75
2021/01/18 03:07:57;;;;;;;3.90;2.63;;;15.40;56.70;;;;;;6364934;22;20002;-75
2021/01/18 03:10:23;;;;;;;4.35;3.30;;;15.30;56.70;;;;;;6364412;22;20024;-74
2021/01/18 03:12:57;;;;;;;4.72;3.47;;;15.30;56.70;;;;;;6367502;22;20443;-74
2021/01/18 03:15:28;;;;;;;5.43;3.40;;;15.30;56.80;;;;;;6338700;22;20089;-74
2021/01/18 03:17:58;;;;;;;4.47;3.53;;;15.30;56.80;;;;;;6367727;22;20138;-74
2021/01/18 03:20:25;;;;;;;4.85;3.30;;;15.30;56.80;;;;;;6339865;22;20430;-74
2021/01/18 03:22:51;;;;;;;5.75;4.00;;;15.30;56.80;;;;;;6368539;22;20017;-74
2021/01/18 03:25:16;;;;;;;4.30;2.75;;;15.30;56.80;;;;;;6367871;22;20030;-74
2021/01/18 03:28:01;;;;;;;5.13;2.75;;;15.30;56.80;;;;;;6338264;22;20052;-74
2021/01/18 03:30:27;;;;;;;4.57;2.85;;;15.30;56.90;;;;;;6364849;22;20041;-74
2021/01/18 03:32:55;;;;;;;4.60;2.80;;;15.30;56.90;;;;;;6339762;22;20420;-74
2021/01/18 03:35:21;;;;;;;;;;;15.30;56.90;;;;;;6368441;22;20420;-74
2021/01/18 03:37:57;;;;;;;4.07;2.78;;;15.30;56.90;;;;;;6367384;22;19898;-74
2021/01/18 03:40:25;;;;;;;3.47;2.90;;;15.30;57.00;;;;;;6366499;22;20157;-74
2021/01/18 03:43:02;;;;;;;5.15;3.05;;;15.30;57.00;;;;;;6338874;22;20010;-75
2021/01/18 03:45:29;;;;;;;3.80;2.77;;;15.30;56.90;;;;;;6339006;22;20010;-74
2021/01/18 03:47:55;;;;;;;3.40;2.70;;;15.30;57.00;;;;;;6340146;22;20328;-75
2021/01/18 03:50:21;;;;;;;4.00;2.50;;;15.30;57.00;;;;;;6339832;22;20054;-74
2021/01/18 03:52:48;;;;;;;4.45;3.30;;;15.30;57.00;;;;;;6366435;22;19994;-74
2021/01/18 03:55:14;;;;;;;4.75;2.67;;;15.30;57.00;;;;;;6339976;22;20006;-74
2021/01/18 03:57:40;;;;;;;4.20;2.65;;;15.30;57.00;;;;;;6367250;22;20005;-74
2021/01/18 04:00:07;;;;;;;4.60;3.50;;;15.30;57.00;;;;;;6366416;22;20005;-74
2021/01/18 04:02:32;;;;;;;4.18;2.97;;;15.30;57.00;;;;;;6366823;22;20033;-74
2021/01/18 04:04:58;;;;;;;4.07;2.67;;;15.30;57.00;;;;;;6339481;22;20403;-74
2021/01/18 04:07:24;;;;;;;4.53;2.72;;;15.30;57.00;;;;;;6339341;22;19994;-74
2021/01/18 04:09:50;;;;;;;3.95;2.85;;;15.30;57.10;;;;;;6339595;22;19998;-74
2021/01/18 04:12:15;;;;;;;4.15;2.80;;;15.30;57.10;;;;;;6366874;22;19998;-74
2021/01/18 04:14:41;;;;;;;4.47;3.28;;;15.30;57.00;;;;;;6365183;22;20006;-74
2021/01/18 04:17:07;;;;;;;5.22;3.25;;;15.30;57.00;;;;;;6366553;22;19999;-74
2021/01/18 04:19:33;;;;;;;3.35;2.63;;;15.30;57.00;;;;;;6368174;22;20495;-74
2021/01/18 04:21:59;;;;;;;4.05;3.05;;;15.30;57.00;;;;;;6366842;22;20026;-77
2021/01/18 04:24:24;;;;;;;2.95;2.08;;;15.30;57.00;;;;;;6338892;22;20263;-73
2021/01/18 04:26:50;;;;;;;4.05;2.50;;;15.30;57.00;;;;;;6338148;22;20026;-74
2021/01/18 04:29:16;;;;;;;3.08;2.55;;;15.30;57.00;;;;;;6337811;22;20010;-74
2021/01/18 04:31:46;;;;;;;4.40;3.05;;;15.30;56.90;;;;;;6338429;22;20466;-74
2021/01/18 04:34:20;;;;;;;5.68;3.05;;;15.30;57.00;;;;;;6338333;22;20017;-74
2021/01/18 04:36:45;;;;;;;4.93;3.08;;;15.30;57.00;;;;;;6366657;22;19999;-74
2021/01/18 04:39:11;;;;;;;4.15;2.70;;;15.30;57.00;;;;;;6338875;22;20393;-74
2021/01/18 04:41:41;;;;;;;3.25;2.35;;;15.30;57.00;;;;;;6365538;22;20009;-74
2021/01/18 04:44:08;;;;;;;4.57;2.75;;;15.30;57.10;;;;;;6365537;22;20067;-74
2021/01/18 04:46:40;;;;;;;4.38;2.88;;;15.30;57.00;;;;;;6365999;22;19997;-74
2021/01/18 04:49:10;;;;;;;4.05;2.75;;;15.30;57.00;;;;;;6339240;22;20350;-74
2021/01/18 04:51:54;;;;;;;3.13;2.63;;;15.30;57.10;;;;;;6366031;22;20333;-74
2021/01/18 04:54:22;;;;;;;3.80;2.67;;;15.30;57.00;;;;;;6338889;22;20436;-73
2021/01/18 04:57:06;;;;;;;;;;;15.30;57.10;;;;;;6366116;22;20376;-75
2021/01/18 04:59:46;;;;;;;3.95;2.67;;;15.30;57.10;;;;;;6337632;22;19963;-74
2021/01/18 05:02:23;;;;;;;3.45;2.22;;;15.30;57.00;;;;;;6366888;22;20043;-74
2021/01/18 05:04:54;;;;;;;4.30;2.75;;;15.30;57.10;;;;;;6365313;22;20017;-74
2021/01/18 05:07:35;;;;;;;4.13;2.25;;;15.30;57.00;;;;;;6366401;22;20018;-74
2021/01/18 05:10:12;;;;;;;4.35;2.85;;;15.30;57.00;;;;;;6367133;22;19997;-74
2021/01/18 05:12:43;;;;;;;4.20;2.90;;;15.40;57.00;;;;;;6367088;22;20287;-74
2021/01/18 05:15:12;;;;;;;3.42;2.30;;;15.30;57.00;;;;;;6338038;22;20543;-74
2021/01/18 05:17:44;;;;;;;4.35;2.60;;;15.30;57.00;;;;;;6366645;22;20467;-74
2021/01/18 05:20:20;;;;;;;2.80;2.25;;;15.40;57.00;;;;;;6366397;22;20459;-74
2021/01/18 05:22:48;;;;;;;3.25;2.35;;;15.40;56.90;;;;;;6337942;22;20002;-74
2021/01/18 05:25:14;;;;;;;3.70;2.40;;;15.30;57.00;;;;;;6366658;22;20084;-74
2021/01/18 05:27:59;;;;;;;3.00;2.45;;;15.40;57.00;;;;;;6365619;22;20061;-73
2021/01/18 05:30:26;;;;;;;3.03;2.30;;;15.30;57.00;;;;;;6365306;22;20001;-73
2021/01/18 05:33:12;;;;;;;3.28;2.42;;;15.40;57.00;;;;;;6338932;22;20030;-74
2021/01/18 05:35:49;;;;;;;3.92;2.60;;;15.40;56.90;;;;;;6339298;22;20033;-73
2021/01/18 05:38:16;;;;;;;5.30;3.23;;;15.40;57.00;;;;;;6366983;22;20005;-73
2021/01/18 05:40:48;;;;;;;4.18;2.85;;;15.40;57.00;;;;;;6366298;22;19999;-74
2021/01/18 05:43:16;;;;;;;3.80;2.50;;;15.40;57.00;;;;;;6338253;22;20033;-74
2021/01/18 05:45:43;;;;;;;3.65;2.67;;;15.40;57.00;;;;;;6365796;22;20006;-74
2021/01/18 05:48:10;;;;;;;4.25;2.60;;;15.30;57.00;;;;;;6338738;22;20006;-73
2021/01/18 05:50:40;;;;;;;5.38;2.90;;;15.30;57.10;;;;;;6366459;22;20004;-74
2021/01/18 05:53:28;;;;;;;4.00;2.53;;;15.30;57.10;;;;;;6338742;22;20041;-74
2021/01/18 05:55:54;;;;;;;3.47;2.17;;;15.30;57.10;;;;;;6340278;22;20056;-74
2021/01/18 05:58:33;;;;;;;3.80;2.30;;;15.30;57.20;;;;;;6366176;22;19994;-74
2021/01/18 06:01:02;;;;;;;3.65;2.60;;;15.30;57.20;;;;;;6365583;22;19994;-74
2021/01/18 06:03:35;;;;;;;3.35;2.60;;;15.30;57.20;;;;;;6338786;22;20085;-74
2021/01/18 06:06:01;;;;;;;3.22;2.30;;;15.30;57.20;;;;;;6339165;22;20025;-74
2021/01/18 06:08:31;;;;;;;4.10;3.10;;;15.30;57.30;;;;;;6365672;22;20527;-74
2021/01/18 06:11:01;;;;;;;3.08;2.15;;;15.30;57.30;;;;;;6335832;22;20001;-74
2021/01/18 06:13:28;;;;;;;3.72;2.63;;;15.30;57.40;;;;;;6336792;22;20010;-74
2021/01/18 06:15:59;;;;;;;3.03;2.70;;;15.30;57.40;;;;;;6338222;22;19994;-73
2021/01/18 06:18:38;;;;;;;3.55;2.80;;;15.30;57.40;;;;;;6366678;22;19994;-74
2021/01/18 06:21:05;;;;;;;3.00;2.15;;;15.30;57.40;;;;;;6366890;22;20025;-74
2021/01/18 06:23:32;;;;;;;3.07;2.57;;;15.30;57.40;;;;;;6364742;22;20021;-74
2021/01/18 06:25:58;;;;;;;3.10;2.17;;;15.30;57.50;;;;;;6365418;22;20001;-74
2021/01/18 06:28:29;;;;;;;4.97;2.63;;;15.30;57.50;;;;;;6365594;22;20006;-74
2021/01/18 06:31:15;;;;;;;3.38;2.28;;;15.30;57.50;;;;;;6335366;22;20408;-74
2021/01/18 06:33:55;;;;;;;3.80;2.47;;;15.30;57.50;;;;;;6309535;22;20443;-74
2021/01/18 06:36:26;;;;;;;3.65;2.30;;;15.30;57.50;;;;;;6365681;22;20056;-74
2021/01/18 06:38:58;;;;;;;2.55;2.15;;;15.30;57.50;;;;;;6337641;22;20002;-74
2021/01/18 06:41:54;;;;;;;3.45;2.30;;;15.30;57.50;;;;;;6365228;22;20001;-74
2021/01/18 06:44:32;;;;;;;3.00;2.17;;;15.30;57.50;;;;;;6335995;22;20010;-73
2021/01/18 06:46:58;;;;;;;2.90;2.13;;;15.30;57.60;;;;;;6367088;22;20419;-74
2021/01/18 06:49:25;;;;;;;3.63;2.60;;;15.20;57.60;;;;;;6368971;22;20005;-74
2021/01/18 06:51:56;;;;;;;2.80;2.20;;;15.30;57.60;;;;;;6340412;22;20002;-74
2021/01/18 06:54:28;;;;;;;3.63;2.25;;;15.20;57.60;;;;;;6368794;22;20229;-74
2021/01/18 06:57:12;;;;;;;2.88;2.15;;;15.20;57.60;;;;;;6366640;22;20082;-75
2021/01/18 06:59:50;;;;;;;3.63;2.45;;;15.20;57.60;;;;;;6338300;22;19998;-74
2021/01/18 07:02:27;;;;;;;2.95;2.10;;;15.20;57.70;;;;;;6340557;22;20037;-74
2021/01/18 07:05:15;;;;;;;3.53;2.53;;;15.20;57.60;;;;;;6342075;22;20330;-74
2021/01/18 07:07:54;;;;;;;4.03;2.40;;;15.20;57.70;;;;;;6369466;22;20002;-74
2021/01/18 07:10:22;;;;;;;2.97;2.28;;;15.20;57.70;;;;;;6367542;22;19995;-74
2021/01/18 07:12:48;;;;;;;2.15;1.88;;;15.20;57.70;;;;;;6337837;22;20010;-75
2021/01/18 07:15:15;;;;;;;3.92;2.42;;;15.20;57.70;;;;;;6365673;22;20077;-74
2021/01/18 07:17:43;;;;;;;2.60;2.10;;;15.20;57.70;;;;;;6367898;22;20009;-74
2021/01/18 07:20:18;;;;;;;;;;;15.20;57.70;;;;;;6370312;22;20006;-73
2021/01/18 07:23:19;;;;;;;2.97;2.17;;;15.20;57.70;;;;;;6369345;22;20220;-74
2021/01/18 07:25:47;;;;;;;3.35;2.20;;;15.20;57.70;;;;;;6366787;22;20078;-74
2021/01/18 07:28:18;;;;;;;2.25;1.95;;;15.20;57.70;;;;;;6365772;22;20002;-74
2021/01/18 07:30:45;;;;;;;2.85;2.22;;;15.20;57.70;;;;;;6365760;22;19994;-74
2021/01/18 07:33:15;;;;;;;3.10;2.10;;;15.20;57.80;;;;;;6368622;22;20366;-74
2021/01/18 07:35:43;;;;;;;2.85;2.53;;;15.20;57.80;;;;;;6368816;22;20014;-74
2021/01/18 07:38:17;;;;;;;3.35;2.00;;;15.20;57.80;;;;;;6340939;22;20493;-74
2021/01/18 07:41:07;;;;;;;2.75;2.28;;;15.20;57.80;;;;;;6338052;22;20009;-74
2021/01/18 07:43:38;;;;;;;3.08;2.28;;;15.20;57.80;;;;;;6365856;22;20362;-74
2021/01/18 07:46:25;;;;;;;2.47;1.98;;;15.20;57.70;;;;;;6365693;22;20014;-74
2021/01/18 07:49:13;;;;;;;3.15;2.22;;;15.20;57.80;;;;;;6369599;22;19998;-74
2021/01/18 07:51:38;;;;;;;2.90;2.00;;;15.30;57.90;;;;;;6368544;22;20476;-74
2021/01/18 07:54:04;;;;;;;2.92;2.08;;;15.30;57.70;;;;;;6340943;22;20034;-72
2021/01/18 07:56:31;;;;;;;3.25;2.33;;;15.30;57.70;;;;;;6336402;22;20081;-74
2021/01/18 07:59:02;;;;;;;3.60;2.13;;;15.30;57.70;;;;;;6368471;22;20436;-74
2021/01/18 08:01:33;;;;;;;4.20;2.10;;;15.30;57.70;;;;;;6339844;22;20394;-73
2021/01/18 08:04:23;;;;;;;5.70;2.08;;;15.20;57.70;;;;;;6341024;22;20014;-74
2021/01/18 08:07:06;;;;;;;2.42;2.00;;;15.30;57.60;;;;;;6341435;22;20207;-74
2021/01/18 08:09:33;;;;;;;2.90;1.90;;;15.30;57.60;;;;;;6369352;22;20374;-73
2021/01/18 08:12:28;;;;;;;3.70;2.35;;;15.30;57.60;;;;;;6339098;22;20071;-73
2021/01/18 08:15:05;;;;;;;3.17;2.15;;;15.30;57.50;;;;;;6350266;22;20618;-74
2021/01/18 08:17:31;;;;;;;2.40;1.70;;;15.30;57.50;;;;;;6339061;22;20424;-74
2021/01/18 08:20:21;;;;;;;2.33;1.98;;;15.30;57.50;;;;;;6368647;22;19990;-74
2021/01/18 08:22:47;;;;;;;3.05;2.00;;;15.30;57.40;;;;;;6339980;22;20005;-74
2021/01/18 08:25:14;;;;;;;2.25;2.03;;;15.30;57.40;;;;;;6367479;22;20003;-74
2021/01/18 08:27:47;;;;;;;2.08;1.50;;;15.30;57.40;;;;;;6340747;22;20335;-74
2021/01/18 08:30:30;;;;;;;2.33;1.90;;;15.40;57.30;;;;;;6367484;22;20018;-74
2021/01/18 08:33:04;;;;;;;2.47;2.08;;;15.40;57.30;;;;;;6338163;22;20025;-74
2021/01/18 08:35:45;;;;;;;2.88;1.98;;;15.40;57.30;;;;;;6368348;22;20003;-71
2021/01/18 08:38:24;;;;;;;1.70;1.60;;;15.40;57.20;;;;;;6368844;22;20029;-71
2021/01/18 08:40:51;;;;;;;2.47;1.80;;;15.40;57.20;;;;;;6369216;22;20327;-71
2021/01/18 08:43:21;;;;;;;3.03;2.33;;;15.40;57.20;;;;;;6339942;22;20089;-72
2021/01/18 08:45:53;;;;;;;3.05;2.30;;;15.40;57.20;;;;;;6338813;22;20048;-72
2021/01/18 08:48:21;;;;;;;2.88;2.20;;;15.40;57.10;;;;;;6339990;22;20024;-72
2021/01/18 08:50:54;;;;;;;;;;;15.40;57.10;;;;;;6369178;22;20001;-71
2021/01/18 08:53:27;;;;;;;2.38;1.73;;;15.40;57.10;;;;;;6341016;22;19910;-70
2021/01/18 08:56:04;;;;;;;3.20;2.13;;;15.40;57.10;;;;;;6338698;22;19998;-71
2021/01/18 08:58:43;;;;;;;3.47;2.00;;;15.40;57.10;;;;;;6364951;22;20086;-72
2021/01/18 09:01:25;;;;;;;2.78;1.83;;;15.50;57.10;;;;;;6337674;22;20431;-72
2021/01/18 09:04:07;;;;;;;2.38;1.85;;;15.40;57.10;;;;;;6340320;22;20006;-72
2021/01/18 09:06:33;;;;;;;2.70;1.80;;;15.50;57.10;;;;;;6340341;22;20009;-72
2021/01/18 09:09:04;;;;;;;2.92;2.20;;;15.50;57.10;;;;;;6339430;22;20091;-72
2021/01/18 09:11:31;;;;;;;2.42;1.80;;;15.40;57.10;;;;;;6365671;22;19998;-72
2021/01/18 09:13:57;;;;;;;2.80;1.95;;;15.50;57.10;;;;;;6339156;22;20036;-72
2021/01/18 09:16:23;;;;;;;1.67;1.58;;;15.50;57.10;;;;;;6367875;22;19995;-73
2021/01/18 09:18:49;;;;;;;1.85;1.65;;;15.50;57.10;;;;;;6340462;22;20327;-72
2021/01/18 09:21:17;;;;;;;2.78;2.17;;;15.40;57.10;;;;;;6368795;22;19994;-72
2021/01/18 09:23:43;;;;;;;2.90;1.92;;;15.40;57.10;;;;;;6368351;22;19998;-72
2021/01/18 09:26:14;;;;;;;1.95;1.73;;;15.40;57.20;;;;;;6339503;22;20184;-72
2021/01/18 09:28:53;;;;;;;2.22;1.67;;;15.40;57.20;;;;;;6338719;22;20009;-72
2021/01/18 09:31:19;;;;;;;2.58;1.95;;;15.40;57.30;;;;;;6337876;22;20305;-72
2021/01/18 09:33:45;;;;;;;3.83;2.35;;;15.40;57.30;;;;;;6340016;22;20026;-74
2021/01/18 09:36:15;;;;;;;3.03;1.88;;;15.40;57.30;;;;;;6340292;22;20059;-73
2021/01/18 09:38:42;;;;;;;2.35;1.60;;;15.40;57.30;;;;;;6368235;22;19999;-73
2021/01/18 09:41:08;;;;;;;2.85;2.20;;;15.40;57.30;;;;;;6365999;22;20030;-73
2021/01/18 09:43:34;;;;;;;1.95;1.73;;;15.40;57.40;;;;;;6365372;22;20471;-74
2021/01/18 09:46:01;;;;;;;3.10;2.15;;;15.40;57.30;;;;;;6313388;22;20009;-73
2021/01/18 09:48:27;;;;;;;1.98;1.58;;;15.30;57.40;;;;;;6339719;22;20049;-74
2021/01/18 09:51:05;;;;;;;2.13;1.85;;;15.40;57.30;;;;;;6367963;22;19998;-73
2021/01/18 09:53:31;;;;;;;2.85;1.58;;;15.40;57.30;;;;;;6339149;22;20002;-73
2021/01/18 09:56:12;;;;;;;3.05;2.75;;;15.40;57.30;;;;;;6339750;22;20080;-73
2021/01/18 09:58:40;;;;;;;2.53;2.05;;;15.40;57.20;;;;;;6366418;22;19998;-73
2021/01/18 10:01:16;;;;;;;2.55;1.70;;;15.40;57.20;;;;;;6367027;22;20006;-73
2021/01/18 10:03:52;;;;;;;3.47;2.70;;;15.50;57.10;;;;;;6367384;22;20047;-73
2021/01/18 10:06:27;;;;;;;2.42;1.92;;;15.50;57.00;;;;;;6339995;22;20058;-73
2021/01/18 10:09:17;;;;;;;2.10;1.60;;;15.50;57.00;;;;;;6340543;22;20005;-74
2021/01/18 10:11:45;;;;;;;2.55;1.80;;;15.50;57.00;;;;;;6336622;22;20014;-74
2021/01/18 10:14:24;;;;;;;2.15;1.60;;;15.50;57.10;;;;;;6337330;22;20006;-73
2021/01/18 10:17:03;;;;;;;3.53;2.00;;;15.50;57.10;;;;;;6364035;22;20029;-72
2021/01/18 10:19:30;;;;;;;2.38;1.85;;;15.50;57.10;;;;;;6368322;22;20005;-72
2021/01/18 10:21:57;;;;;;;2.40;1.85;;;15.50;57.10;;;;;;6367800;22;19999;-73
2021/01/18 10:24:33;;;;;;;2.13;1.45;;;15.50;57.10;;;;;;6366702;22;20432;-73
2021/01/18 10:27:06;;;;;;;1.30;1.20;;;15.40;57.20;;;;;;6336395;22;20002;-73
2021/01/18 10:29:33;;;;;;;2.70;1.90;;;15.50;57.20;;;;;;6366536;22;20091;-73
2021/01/18 10:31:59;;;;;;;2.47;1.90;;;15.40;57.20;;;;;;6338993;22;20078;-72
2021/01/18 10:34:35;;;;;;;2.80;1.67;;;15.40;57.30;;;;;;6367363;22;20382;-72
2021/01/18 10:37:12;;;;;;;2.33;1.92;;;15.40;57.30;;;;;;6340072;22;20010;-72
2021/01/18 10:39:39;;;;;;;3.30;2.10;;;15.40;57.30;;;;;;6367225;22;19997;-72
2021/01/18 10:42:10;;;;;;;1.85;1.67;;;15.40;57.30;;;;;;6336784;22;19995;-72
2021/01/18 10:44:41;;;;;;;3.08;2.00;;;15.40;57.30;;;;;;6339335;22;20006;-72
2021/01/18 10:47:07;;;;;;;1.92;1.50;;;15.40;57.30;;;;;;6367298;22;20018;-72
2021/01/18 10:49:34;;;;;;;2.13;1.80;;;15.40;57.30;;;;;;6367298;22;20001;-73
2021/01/18 10:52:09;;;;;;;2.67;1.90;;;15.40;57.30;;;;;;6339267;22;19999;-73
2021/01/18 10:54:35;;;;;;;2.78;2.03;;;15.40;57.30;;;;;;6367272;22;20026;-73
2021/01/18 10:57:01;;;;;;;3.10;2.00;;;15.40;57.30;;;;;;6339343;22;20081;-72
2021/01/18 10:59:28;;;;;;;1.58;1.48;;;15.40;57.30;;;;;;6366490;22;20320;-72
2021/01/18 11:02:07;;;;;;;1.80;1.52;;;15.40;57.30;;;;;;6338025;22;20005;-72
2021/01/18 11:04:44;;;;;;;2.58;2.05;;;15.50;57.30;;;;;;6365293;22;20416;-73
2021/01/18 11:07:11;;;;;;;2.85;1.85;;;15.40;57.30;;;;;;6365299;22;20415;-73
2021/01/18 11:09:38;;;;;;;1.90;1.48;;;15.40;57.40;;;;;;6337187;22;20105;-72
2021/01/18 11:12:05;;;;;;;2.20;1.88;;;15.40;57.40;;;;;;6336659;22;19998;-73
2021/01/18 11:14:31;;;;;;;2.77;1.87;;;15.40;57.40;;;;;;6337450;22;20002;-72
2021/01/18 11:17:03;;;;;;;2.25;1.75;;;15.40;57.40;;;;;;6364101;22;20280;-73
2021/01/18 11:19:31;;;;;;;2.30;1.60;;;15.40;57.40;;;;;;6365519;22;20003;-72
2021/01/18 11:21:57;;;;;;;2.20;1.70;;;15.40;57.30;;;;;;6337240;22;19999;-73
2021/01/18 11:24:22;;;;;;;2.65;1.50;;;15.40;57.30;;;;;;6363831;22;20069;-75
2021/01/18 11:26:49;;;;;;;1.80;1.58;;;15.40;57.30;;;;;;6361446;22;20101;-73
2021/01/18 11:29:15;;;;;;;2.30;1.90;;;15.50;57.20;;;;;;6361796;22;20020;-73
2021/01/18 11:31:42;;;;;;;1.88;1.52;;;15.50;57.20;;;;;;6337293;22;20009;-72
2021/01/18 11:34:08;;;;;;;2.53;1.80;;;15.50;57.10;;;;;;6369144;22;20014;-73
2021/01/18 11:36:33;;;;;;;1.77;1.50;;;15.50;57.10;;;;;;6369346;22;20024;-73
2021/01/18 11:39:02;;;;;;;1.65;1.50;;;15.50;57.10;;;;;;6369577;22;20412;-73
2021/01/18 11:41:27;;;;;;;2.42;1.73;;;15.50;57.00;;;;;;6366549;22;19994;-73
2021/01/18 11:43:53;;;;;;;2.70;1.90;;;15.50;57.00;;;;;;6339350;22;20617;-73
2021/01/18 11:46:19;;;;;;;2.40;1.92;;;15.60;57.00;;;;;;6339780;22;20003;-73
2021/01/18 11:48:45;;;;;;;2.00;1.40;;;15.50;57.00;;;;;;6369596;22;20121;-73
2021/01/18 11:51:11;;;;;;;2.20;1.70;;;15.60;57.00;;;;;;6370086;22;19997;-72
2021/01/18 11:53:37;;;;;;;1.80;1.55;;;15.50;57.00;;;;;;6341481;22;20050;-73
2021/01/18 11:56:03;;;;;;;1.90;1.50;;;15.50;57.00;;;;;;6368499;22;19994;-73
2021/01/18 11:58:29;;;;;;;1.95;1.63;;;15.60;56.90;;;;;;6338930;22;20007;-73
2021/01/18 12:00:55;;;;;;;2.15;1.50;;;15.60;57.00;;;;;;6367011;22;20002;-72
2021/01/18 12:03:25;;;;;;;2.47;1.50;;;15.60;57.00;;;;;;6341424;22;20368;-73
2021/01/18 12:05:51;;;;;;;2.35;1.80;;;15.60;56.90;;;;;;6368525;22;20462;-72
2021/01/18 12:08:17;;;;;;;1.90;1.50;;;15.60;56.90;;;;;;6368634;22;19994;-73
2021/01/18 12:10:43;;;;;;;2.35;1.73;;;15.60;56.90;;;;;;6366933;22;20002;-73
2021/01/18 12:13:09;;;;;;;1.50;1.40;;;15.60;56.90;;;;;;6337536;22;20404;-73
2021/01/18 12:15:35;;;;;;;1.98;1.55;;;15.60;56.90;;;;;;6338568;22;20491;-73
2021/01/18 12:18:01;;;;;;;1.73;1.63;;;15.60;56.90;;;;;;6340298;22;19994;-72
2021/01/18 12:20:27;;;;;;;1.83;1.55;;;15.60;56.90;;;;;;6369455;22;20019;-72
2021/01/18 12:22:54;;;;;;;2.17;1.60;;;15.60;56.90;;;;;;6341392;22;20051;-73
2021/01/18 12:25:20;;;;;;;2.33;1.60;;;15.60;56.90;;;;;;6367203;22;20010;-73
2021/01/18 12:27:55;;;;;;;1.80;1.13;;;15.60;56.90;;;;;;6365239;22;20073;-73
2021/01/18 12:30:21;;;;;;;1.42;1.33;;;15.60;56.90;;;;;;6364187;22;20009;-74
2021/01/18 12:32:47;;;;;;;2.08;1.52;;;15.60;56.90;;;;;;6367868;22;20069;-73
2021/01/18 12:35:14;;;;;;;2.15;1.40;;;15.60;56.90;;;;;;6368206;22;20013;-73
2021/01/18 12:37:40;;;;;;;3.03;1.70;;;15.50;57.00;;;;;;6340536;22;19998;-72
2021/01/18 12:40:07;;;;;;;2.55;1.65;;;15.60;57.00;;;;;;6339331;22;20274;-73
2021/01/18 12:42:34;;;;;;;1.63;1.47;;;15.60;57.00;;;;;;6368551;22;20002;-72
2021/01/18 12:45:00;;;;;;;1.67;1.40;;;15.60;57.00;;;;;;6338681;22;20081;-73
2021/01/18 12:47:25;;;;;;;2.45;1.77;;;15.50;57.00;;;;;;6366995;22;20033;-72
2021/01/18 12:49:51;;;;;;;2.03;1.70;;;15.50;57.00;;;;;;6340092;22;20009;-73
2021/01/18 12:52:16;;;;;;;2.58;1.95;;;15.50;57.00;;;;;;6368140;22;20146;-73
2021/01/18 12:54:46;;;;;;;2.40;1.65;;;15.50;57.10;;;;;;6339965;22;20337;-73
2021/01/18 12:57:12;;;;;;;1.90;1.48;;;15.50;57.20;;;;;;6365616;22;20153;-73
2021/01/18 12:59:38;;;;;;;2.10;1.42;;;15.50;57.20;;;;;;6339575;22;20407;-73
2021/01/18 13:02:06;;;;;;;2.35;1.90;;;15.50;57.20;;;;;;6338617;22;20507;-74
2021/01/18 13:04:32;;;;;;;;;;;15.50;57.30;;;;;;6368828;22;20009;-73
2021/01/18 13:06:57;;;;;;;2.00;1.40;;;15.40;57.30;;;;;;6340678;22;19898;-72